createdAt,value
2019-02-11T00:04:00.595Z,4.00
2019-02-11T00:08:05.836Z,4.37
2019-02-11T00:12:10.987Z,3.70
2019-02-11T00:16:16.109Z,5.70
2019-02-11T00:20:21.205Z,4.87
2019-02-11T00:24:26.343Z,3.10
2019-02-11T00:28:31.467Z,5.53
2019-02-11T00:32:36.820Z,7.00
2019-02-11T00:36:41.889Z,3.60
2019-02-11T00:40:46.977Z,5.37
2019-02-11T00:44:52.077Z,4.73
2019-02-11T00:48:57.214Z,3.90
2019-02-11T00:53:02.383Z,4.00
2019-02-11T00:57:07.430Z,6.53
2019-02-11T01:01:12.628Z,6.40
2019-02-11T01:05:17.698Z,7.93
2019-02-11T01:09:22.801Z,10.37
2019-02-11T01:13:28.183Z,9.00
2019-02-11T01:17:33.211Z,8.77
2019-02-11T01:21:38.192Z,10.97
2019-02-11T01:25:43.258Z,13.17
2019-02-11T01:29:48.883Z,13.87
2019-02-11T01:33:54.009Z,10.00
2019-02-11T01:37:59.085Z,10.73
2019-02-11T01:42:04.280Z,7.37
2019-02-11T01:46:09.437Z,13.57
2019-02-11T01:50:14.733Z,13.90
2019-02-11T01:54:19.763Z,10.90
2019-02-11T01:58:24.820Z,9.13
2019-02-11T02:02:29.905Z,5.90
2019-02-11T02:06:35.084Z,8.03
2019-02-11T02:10:40.494Z,11.07
2019-02-11T02:14:45.530Z,7.60
2019-02-11T02:18:50.618Z,11.33
2019-02-11T02:22:55.740Z,13.00
2019-02-11T02:27:00.908Z,10.23
2019-02-11T02:31:06.024Z,7.83
2019-02-11T02:35:11.211Z,8.33
2019-02-11T02:39:16.367Z,14.40
2019-02-11T02:43:21.434Z,10.70
2019-02-11T02:47:26.421Z,10.97
2019-02-11T02:51:31.617Z,11.57
2019-02-11T02:55:36.747Z,16.00
2019-02-11T02:59:41.893Z,22.67
2019-02-11T03:03:47.058Z,26.20
2019-02-11T03:07:52.104Z,20.03
2019-02-11T03:11:57.232Z,18.30
2019-02-11T03:16:02.561Z,25.77
2019-02-11T03:20:08.127Z,24.60
2019-02-11T03:24:13.254Z,23.27
2019-02-11T03:28:18.390Z,26.03
2019-02-11T03:32:23.419Z,22.93
2019-02-11T03:36:28.549Z,16.83
2019-02-11T03:40:33.704Z,16.03
2019-02-11T03:44:38.892Z,21.70
2019-02-11T03:48:43.976Z,19.27
2019-02-11T03:52:49.273Z,17.63
2019-02-11T03:56:54.351Z,15.77
2019-02-11T04:00:59.493Z,23.57
2019-02-11T04:05:04.784Z,21.07
2019-02-11T04:09:09.934Z,21.57
2019-02-11T04:13:15.183Z,22.17
2019-02-11T04:17:20.370Z,18.30
2019-02-11T04:21:25.480Z,25.23
2019-02-11T04:25:30.566Z,16.67
2019-02-11T04:29:35.649Z,20.93
2019-02-11T04:33:40.841Z,17.10
2019-02-11T04:37:46.907Z,20.03
2019-02-11T04:41:51.927Z,19.97
2019-02-11T04:45:57.641Z,17.27
2019-02-11T04:50:02.740Z,18.63
2019-02-11T04:54:07.974Z,18.83
2019-02-11T04:58:13.033Z,15.87
2019-02-11T05:02:18.092Z,23.97
2019-02-11T05:06:24.172Z,14.77
2019-02-11T05:10:29.168Z,14.17
2019-02-11T05:14:43.254Z,23.33
2019-02-11T05:18:41.056Z,20.73
2019-02-11T05:22:46.095Z,18.00
2019-02-11T05:26:51.535Z,23.03
2019-02-11T05:30:57.805Z,20.97
2019-02-11T05:35:02.905Z,22.63
2019-02-11T05:39:08.019Z,19.60
2019-02-11T05:43:13.145Z,25.27
2019-02-11T05:47:18.232Z,24.17
2019-02-11T05:51:23.270Z,17.17
2019-02-11T05:55:28.431Z,19.73
2019-02-11T05:59:33.548Z,24.90
2019-02-11T06:03:38.714Z,17.33
2019-02-11T06:07:43.857Z,17.90
2019-02-11T06:11:49.064Z,17.03
2019-02-11T06:15:54.193Z,20.37
2019-02-11T06:19:59.470Z,18.97
2019-02-11T06:24:04.649Z,16.17
2019-02-11T06:28:09.784Z,18.70
2019-02-11T06:32:15.026Z,16.62
2019-02-11T06:36:20.184Z,22.17
2019-02-11T06:40:25.251Z,22.30
2019-02-11T06:44:30.424Z,19.00
2019-02-11T06:48:35.570Z,26.23
2019-02-11T06:52:40.632Z,24.37
2019-02-11T06:56:45.741Z,26.43
2019-02-11T07:00:50.884Z,23.77
2019-02-11T07:04:55.997Z,25.73
2019-02-11T07:09:04.567Z,23.23
2019-02-11T07:13:09.998Z,22.33
2019-02-11T07:17:15.449Z,25.23
2019-02-11T07:21:20.690Z,20.50
2019-02-11T07:25:25.777Z,24.13
2019-02-11T07:29:31.011Z,21.10
2019-02-11T07:33:36.232Z,26.77
2019-02-11T07:37:41.333Z,23.07
2019-02-11T07:42:04.772Z,19.73
2019-02-11T07:46:17.890Z,24.37
2019-02-11T07:50:23.058Z,23.27
2019-02-11T07:54:28.193Z,22.53
2019-02-11T07:58:33.320Z,23.57
2019-02-11T08:02:38.646Z,20.07
2019-02-11T08:06:43.788Z,23.40
2019-02-11T08:10:48.957Z,22.57
2019-02-11T08:14:54.067Z,23.50
2019-02-11T08:18:59.155Z,28.43
2019-02-11T08:23:11.960Z,24.67
2019-02-11T08:27:11.083Z,24.47
2019-02-11T08:31:16.187Z,17.80
2019-02-11T08:35:21.390Z,18.00
2019-02-11T08:39:26.519Z,16.70
2019-02-11T08:43:31.577Z,17.60
2019-02-11T08:47:36.686Z,22.53
2019-02-11T08:51:41.781Z,25.57
2019-02-11T08:55:47.179Z,16.10
2019-02-11T08:59:52.248Z,20.67
2019-02-11T09:03:57.231Z,19.67
2019-02-11T09:08:02.400Z,18.63
2019-02-11T09:12:07.446Z,15.97
2019-02-11T09:16:12.590Z,14.03
2019-02-11T09:20:18.834Z,21.67
2019-02-11T09:24:23.919Z,12.73
2019-02-11T09:28:29.016Z,14.80
2019-02-11T09:32:34.193Z,14.27
2019-02-11T09:36:39.253Z,13.40
2019-02-11T09:40:44.414Z,18.90
2019-02-11T09:44:49.477Z,15.57
2019-02-11T09:48:54.517Z,16.90
2019-02-11T09:52:59.876Z,15.23
2019-02-11T09:57:05.048Z,13.97
2019-02-11T10:01:10.241Z,13.00
2019-02-11T10:05:15.351Z,12.83
2019-02-11T10:09:20.530Z,13.57
2019-02-11T10:13:25.657Z,22.07
2019-02-11T10:17:30.700Z,18.73
2019-02-11T10:21:35.966Z,16.67
2019-02-11T10:25:41.047Z,14.83
2019-02-11T10:29:46.146Z,15.83
2019-02-11T10:33:51.157Z,15.27
2019-02-11T10:37:56.308Z,18.97
2019-02-11T10:42:01.497Z,16.57
2019-02-11T10:46:06.573Z,14.37
2019-02-11T10:50:13.015Z,16.00
2019-02-11T10:54:18.148Z,20.30
2019-02-11T10:58:24.275Z,12.33
2019-02-11T11:02:29.704Z,19.50
2019-02-11T11:06:34.759Z,15.60
2019-02-11T11:10:40.031Z,17.03
2019-02-11T11:14:45.140Z,23.20
2019-02-11T11:18:51.266Z,16.63
2019-02-11T11:22:56.356Z,13.50
2019-02-11T11:27:01.538Z,14.87
2019-02-11T11:31:06.991Z,15.03
2019-02-11T11:35:13.430Z,15.27
2019-02-11T11:39:25.344Z,18.10
2019-02-11T11:43:30.666Z,17.00
2019-02-11T11:47:35.768Z,17.30
2019-02-11T11:51:40.887Z,12.00
2019-02-11T11:55:46.000Z,14.63
2019-02-11T11:59:51.109Z,15.17
2019-02-11T12:03:56.201Z,12.20
2019-02-11T12:08:01.194Z,16.87
2019-02-11T12:12:07.023Z,13.93
2019-02-11T12:16:12.069Z,14.90
2019-02-11T12:20:17.253Z,13.47
2019-02-11T12:24:22.508Z,11.97
2019-02-11T12:28:27.638Z,15.60
2019-02-11T12:32:32.762Z,17.50
2019-02-11T12:36:37.811Z,9.70
2019-02-11T12:40:43.816Z,16.93
2019-02-11T12:44:48.915Z,13.43
2019-02-11T12:48:54.391Z,16.37
2019-02-11T12:52:59.453Z,20.17
2019-02-11T12:57:04.546Z,12.77
2019-02-11T13:01:09.660Z,8.93
2019-02-11T13:05:15.284Z,11.73
2019-02-11T13:09:20.381Z,9.97
2019-02-11T13:13:25.471Z,8.67
2019-02-11T13:17:34.501Z,10.40
2019-02-11T13:21:37.288Z,8.90
2019-02-11T13:25:42.431Z,13.40
2019-02-11T13:29:47.556Z,10.17
2019-02-11T13:33:52.652Z,8.20
2019-02-11T13:37:57.788Z,12.63
2019-02-11T13:42:02.925Z,18.07
2019-02-11T13:46:08.043Z,13.10
2019-02-11T13:50:15.640Z,14.77
2019-02-11T13:54:20.800Z,16.67
2019-02-11T13:58:26.234Z,12.47
2019-02-11T14:02:31.330Z,19.30
2019-02-11T14:06:36.429Z,19.67
2019-02-11T14:10:41.646Z,16.83
2019-02-11T14:14:48.035Z,19.73
2019-02-11T14:18:53.123Z,18.40
2019-02-11T14:22:58.462Z,12.27
2019-02-11T14:27:03.504Z,12.73
2019-02-11T14:31:08.680Z,15.30
2019-02-11T14:35:14.858Z,11.60
2019-02-11T14:39:20.103Z,15.73
2019-02-11T14:43:25.317Z,15.50
2019-02-11T14:47:33.678Z,14.97
2019-02-11T14:51:41.110Z,13.40
2019-02-11T14:55:46.415Z,13.43
2019-02-11T14:59:51.458Z,16.63
2019-02-11T15:03:56.649Z,14.23
2019-02-11T15:08:01.749Z,27.40
2019-02-11T15:12:06.887Z,18.53
2019-02-11T15:16:11.993Z,14.47
2019-02-11T15:20:17.128Z,18.97
2019-02-11T15:24:22.274Z,14.03
2019-02-11T15:28:27.424Z,16.00
2019-02-11T15:32:32.771Z,17.10
2019-02-11T15:36:37.945Z,19.00
2019-02-11T15:40:43.036Z,18.97
2019-02-11T15:44:48.142Z,20.63
2019-02-11T15:48:53.171Z,19.53
2019-02-11T15:52:59.048Z,16.70
2019-02-11T15:57:04.291Z,22.80
2019-02-11T16:01:09.390Z,18.10
2019-02-11T16:05:16.643Z,18.23
2019-02-11T16:09:21.478Z,18.03
2019-02-11T16:13:26.746Z,20.37
2019-02-11T16:17:31.817Z,16.17
2019-02-11T16:21:39.481Z,21.83
2019-02-11T16:25:44.765Z,21.57
2019-02-11T16:29:49.878Z,17.77
2019-02-11T16:33:55.117Z,21.53
2019-02-11T16:38:00.222Z,22.73
2019-02-11T16:42:05.571Z,25.00
2019-02-11T16:46:10.617Z,24.93
2019-02-11T16:50:15.725Z,22.33
2019-02-11T16:54:20.871Z,20.37
2019-02-11T16:58:25.957Z,27.30
2019-02-11T17:02:31.064Z,22.73
2019-02-11T17:06:36.252Z,23.03
2019-02-11T17:10:41.526Z,20.07
2019-02-11T17:14:46.674Z,20.13
2019-02-11T17:18:51.842Z,31.63
2019-02-11T17:22:57.056Z,22.20
2019-02-11T17:27:02.176Z,25.57
2019-02-11T17:31:08.283Z,24.80
2019-02-11T17:35:13.367Z,29.67
2019-02-11T17:39:18.861Z,24.97
2019-02-11T17:43:23.934Z,21.13
2019-02-11T17:47:28.991Z,20.33
2019-02-11T17:51:34.086Z,32.87
2019-02-11T17:55:39.367Z,30.70
2019-02-11T17:59:44.392Z,29.83
2019-02-11T18:03:49.566Z,29.73
2019-02-11T18:07:55.387Z,22.97
2019-02-11T18:12:01.528Z,25.67
2019-02-11T18:16:06.639Z,30.13
2019-02-11T18:20:11.803Z,16.00
2019-02-11T18:24:17.232Z,30.00
2019-02-11T18:28:22.363Z,27.47
2019-02-11T18:32:27.525Z,28.50
2019-02-11T18:36:32.703Z,36.70
2019-02-11T18:40:37.796Z,57.33
2019-02-11T18:44:43.048Z,29.63
2019-02-11T18:48:48.245Z,25.30
2019-02-11T18:52:53.382Z,26.53
2019-02-11T18:56:58.583Z,26.37
2019-02-11T19:01:03.765Z,24.53
2019-02-11T19:05:09.051Z,24.07
2019-02-11T19:09:16.351Z,20.90
2019-02-11T19:13:21.815Z,16.20
2019-02-11T19:17:26.956Z,20.13
2019-02-11T19:21:32.087Z,20.57
2019-02-11T19:25:37.176Z,19.03
2019-02-11T19:29:42.286Z,28.07
2019-02-11T19:33:47.423Z,31.73
2019-02-11T19:37:52.617Z,30.17
2019-02-11T19:41:57.732Z,23.33
2019-02-11T19:46:03.779Z,20.60
2019-02-11T19:50:10.324Z,39.80
2019-02-11T19:54:15.410Z,29.90
2019-02-11T19:58:20.806Z,36.00
2019-02-11T20:02:25.849Z,42.47
2019-02-11T20:06:30.982Z,25.72
2019-02-11T20:10:36.156Z,24.10
2019-02-11T20:14:41.295Z,20.87
2019-02-11T20:18:46.943Z,37.67
2019-02-11T20:22:52.102Z,29.50
2019-02-11T20:26:57.132Z,21.53
2019-02-11T20:31:02.218Z,16.83
2019-02-11T20:35:07.563Z,25.20
2019-02-11T20:39:12.691Z,15.47
2019-02-11T20:43:18.239Z,15.63
2019-02-11T20:47:23.401Z,19.23
2019-02-11T20:51:28.492Z,19.93
2019-02-11T20:55:33.632Z,18.93
2019-02-11T20:59:38.883Z,19.63
2019-02-11T21:03:44.002Z,21.40
2019-02-11T21:07:49.945Z,25.50
2019-02-11T21:11:55.044Z,22.13
2019-02-11T21:16:00.159Z,30.63
2019-02-11T21:20:06.343Z,26.30
2019-02-11T21:24:11.456Z,21.93
2019-02-11T21:28:16.901Z,33.87
2019-02-11T21:32:22.321Z,23.53
2019-02-11T21:36:27.516Z,20.68
2019-02-11T21:40:32.675Z,25.17
2019-02-11T21:44:37.813Z,30.47
2019-02-11T21:48:42.978Z,25.27
2019-02-11T21:52:48.071Z,28.47
2019-02-11T21:56:53.148Z,26.87
2019-02-11T22:01:02.321Z,31.20
2019-02-11T22:05:05.183Z,31.57
2019-02-11T22:09:10.312Z,30.13
2019-02-11T22:13:15.685Z,27.87
2019-02-11T22:17:20.782Z,26.53
2019-02-11T22:21:26.927Z,34.60
2019-02-11T22:25:32.071Z,25.60
2019-02-11T22:29:37.177Z,29.00
2019-02-11T22:33:42.336Z,21.90
2019-02-11T22:37:47.900Z,29.20
2019-02-11T22:41:53.069Z,22.27
2019-02-11T22:45:58.233Z,30.13
2019-02-11T22:50:03.446Z,29.03
2019-02-11T22:54:08.524Z,17.23
2019-02-11T22:58:13.666Z,22.77
2019-02-11T23:02:18.851Z,24.97
2019-02-11T23:06:23.861Z,26.30
2019-02-11T23:10:29.109Z,27.37
2019-02-11T23:14:34.255Z,25.73
2019-02-11T23:18:42.729Z,25.93
2019-02-11T23:22:47.779Z,26.43
2019-02-11T23:26:52.893Z,20.57
2019-02-11T23:30:58.031Z,23.63
2019-02-11T23:35:03.247Z,25.47
2019-02-11T23:39:14.547Z,42.70
2019-02-11T23:43:19.603Z,31.23
2019-02-11T23:47:24.649Z,24.63
2019-02-11T23:51:29.746Z,33.70
2019-02-11T23:55:34.779Z,31.63
2019-02-11T23:59:39.912Z,28.80
